sensor_id;sensor_type;location;lat;lon;timestamp;temperature;humidity
5901;DHT22;2976;49.764;9.796;2023-05-19T00:01:12;8.40;1.00
5901;DHT22;2976;49.764;9.796;2023-05-19T00:03:57;8.40;1.00
5901;DHT22;2976;49.764;9.796;2023-05-19T00:06:27;8.30;1.00
5901;DHT22;2976;49.764;9.796;2023-05-19T00:09:01;8.20;1.00
5901;DHT22;2976;49.764;9.796;2023-05-19T00:11:27;8.10;1.00
5901;DHT22;2976;49.764;9.796;2023-05-19T00:13:55;8.10;1.00
5901;DHT22;2976;49.764;9.796;2023-05-19T00:16:41;8.00;1.00
5901;DHT22;2976;49.764;9.796;2023-05-19T00:19:07;7.90;1.00
5901;DHT22;2976;49.764;9.796;2023-05-19T00:21:35;8.00;1.00
5901;DHT22;2976;49.764;9.796;2023-05-19T00:24:05;7.90;1.00
5901;DHT22;2976;49.764;9.796;2023-05-19T00:26:31;7.80;1.00
5901;DHT22;2976;49.764;9.796;2023-05-19T00:28:56;7.80;1.00
5901;DHT22;2976;49.764;9.796;2023-05-19T00:31:22;7.70;1.00
5901;DHT22;2976;49.764;9.796;2023-05-19T00:33:48;7.70;1.00
5901;DHT22;2976;49.764;9.796;2023-05-19T00:36:13;7.60;1.00
5901;DHT22;2976;49.764;9.796;2023-05-19T00:38:39;7.60;15.90
5901;DHT22;2976;49.764;9.796;2023-05-19T00:41:05;7.50;13.90
5901;DHT22;2976;49.764;9.796;2023-05-19T00:43:31;7.40;10.60
5901;DHT22;2976;49.764;9.796;2023-05-19T00:46:01;7.30;48.10
5901;DHT22;2976;49.764;9.796;2023-05-19T00:48:26;7.20;38.80
5901;DHT22;2976;49.764;9.796;2023-05-19T00:50:54;7.10;54.00
5901;DHT22;2976;49.764;9.796;2023-05-19T00:53:21;7.00;93.80
5901;DHT22;2976;49.764;9.796;2023-05-19T00:55:47;6.90;95.10
5901;DHT22;2976;49.764;9.796;2023-05-19T00:58:15;6.90;96.30
5901;DHT22;2976;49.764;9.796;2023-05-19T01:00:40;6.80;94.80
5901;DHT22;2976;49.764;9.796;2023-05-19T01:03:08;6.70;99.90
5901;DHT22;2976;49.764;9.796;2023-05-19T01:05:40;6.70;99.90
5901;DHT22;2976;49.764;9.796;2023-05-19T01:08:07;6.80;99.90
5901;DHT22;2976;49.764;9.796;2023-05-19T01:10:32;6.70;99.90
5901;DHT22;2976;49.764;9.796;2023-05-19T01:12:58;6.60;99.90
5901;DHT22;2976;49.764;9.796;2023-05-19T01:15:24;6.60;99.90
5901;DHT22;2976;49.764;9.796;2023-05-19T01:17:59;6.50;99.90
5901;DHT22;2976;49.764;9.796;2023-05-19T01:20:36;6.50;99.90
5901;DHT22;2976;49.764;9.796;2023-05-19T01:31:37;6.20;99.90
5901;DHT22;2976;49.764;9.796;2023-05-19T01:34:05;6.10;99.90
5901;DHT22;2976;49.764;9.796;2023-05-19T01:36:32;6.10;99.90
5901;DHT22;2976;49.764;9.796;2023-05-19T01:38:58;6.00;99.90
5901;DHT22;2976;49.764;9.796;2023-05-19T01:41:25;6.00;99.90
5901;DHT22;2976;49.764;9.796;2023-05-19T01:43:52;6.00;99.90
5901;DHT22;2976;49.764;9.796;2023-05-19T01:46:18;6.00;99.90
5901;DHT22;2976;49.764;9.796;2023-05-19T01:48:46;6.00;99.90
5901;DHT22;2976;49.764;9.796;2023-05-19T01:51:12;5.90;99.90
5901;DHT22;2976;49.764;9.796;2023-05-19T01:53:38;5.90;99.90
5901;DHT22;2976;49.764;9.796;2023-05-19T01:56:04;5.90;99.90
5901;DHT22;2976;49.764;9.796;2023-05-19T01:58:44;6.00;99.90
5901;DHT22;2976;49.764;9.796;2023-05-19T02:01:36;6.00;99.90
5901;DHT22;2976;49.764;9.796;2023-05-19T02:04:12;6.00;99.90
5901;DHT22;2976;49.764;9.796;2023-05-19T02:11:54;5.80;99.90
5901;DHT22;2976;49.764;9.796;2023-05-19T02:14:28;5.80;99.90
5901;DHT22;2976;49.764;9.796;2023-05-19T02:16:56;5.70;99.90
5901;DHT22;2976;49.764;9.796;2023-05-19T02:19:29;5.70;99.90
5901;DHT22;2976;49.764;9.796;2023-05-19T02:21:56;5.70;99.90
5901;DHT22;2976;49.764;9.796;2023-05-19T02:24:22;5.70;99.90
5901;DHT22;2976;49.764;9.796;2023-05-19T02:26:51;5.70;99.90
5901;DHT22;2976;49.764;9.796;2023-05-19T02:29:18;5.70;99.90
5901;DHT22;2976;49.764;9.796;2023-05-19T02:31:44;5.70;99.90
5901;DHT22;2976;49.764;9.796;2023-05-19T02:34:10;5.60;99.90
5901;DHT22;2976;49.764;9.796;2023-05-19T02:36:37;5.60;99.90
5901;DHT22;2976;49.764;9.796;2023-05-19T02:39:05;5.60;99.90
5901;DHT22;2976;49.764;9.796;2023-05-19T02:41:30;5.70;99.90
5901;DHT22;2976;49.764;9.796;2023-05-19T02:43:56;5.60;99.90
5901;DHT22;2976;49.764;9.796;2023-05-19T02:46:22;5.60;99.90
5901;DHT22;2976;49.764;9.796;2023-05-19T02:48:50;5.60;99.90
5901;DHT22;2976;49.764;9.796;2023-05-19T02:51:16;5.50;99.90
5901;DHT22;2976;49.764;9.796;2023-05-19T02:53:41;5.50;99.90
5901;DHT22;2976;49.764;9.796;2023-05-19T02:56:07;5.60;99.90
5901;DHT22;2976;49.764;9.796;2023-05-19T02:58:33;5.70;99.90
5901;DHT22;2976;49.764;9.796;2023-05-19T03:00:58;5.90;99.90
5901;DHT22;2976;49.764;9.796;2023-05-19T03:03:24;6.10;99.90
5901;DHT22;2976;49.764;9.796;2023-05-19T03:05:50;6.20;99.90
5901;DHT22;2976;49.764;9.796;2023-05-19T03:08:16;6.20;99.90
5901;DHT22;2976;49.764;9.796;2023-05-19T03:10:41;6.30;99.90
5901;DHT22;2976;49.764;9.796;2023-05-19T03:13:07;6.30;99.90
5901;DHT22;2976;49.764;9.796;2023-05-19T03:15:32;6.30;99.90
5901;DHT22;2976;49.764;9.796;2023-05-19T03:17:58;6.40;99.90
5901;DHT22;2976;49.764;9.796;2023-05-19T03:20:24;6.40;99.90
5901;DHT22;2976;49.764;9.796;2023-05-19T03:22:49;6.40;99.90
5901;DHT22;2976;49.764;9.796;2023-05-19T03:25:15;6.50;99.90
5901;DHT22;2976;49.764;9.796;2023-05-19T03:27:41;6.50;99.90
5901;DHT22;2976;49.764;9.796;2023-05-19T03:30:07;6.60;99.90
5901;DHT22;2976;49.764;9.796;2023-05-19T03:32:33;6.70;99.90
5901;DHT22;2976;49.764;9.796;2023-05-19T03:35:02;6.80;95.70
5901;DHT22;2976;49.764;9.796;2023-05-19T03:37:28;6.80;83.60
5901;DHT22;2976;49.764;9.796;2023-05-19T03:39:54;6.90;73.60
5901;DHT22;2976;49.764;9.796;2023-05-19T03:42:20;7.00;33.00
5901;DHT22;2976;49.764;9.796;2023-05-19T03:44:45;7.10;7.40
5901;DHT22;2976;49.764;9.796;2023-05-19T03:47:11;7.20;1.00
5901;DHT22;2976;49.764;9.796;2023-05-19T03:49:36;7.10;1.00
5901;DHT22;2976;49.764;9.796;2023-05-19T03:52:02;7.20;1.00
5901;DHT22;2976;49.764;9.796;2023-05-19T03:54:28;7.20;1.00
5901;DHT22;2976;49.764;9.796;2023-05-19T03:56:53;7.30;1.00
5901;DHT22;2976;49.764;9.796;2023-05-19T03:59:19;7.30;1.00
5901;DHT22;2976;49.764;9.796;2023-05-19T04:01:45;7.30;1.00
5901;DHT22;2976;49.764;9.796;2023-05-19T04:04:10;7.30;1.00
5901;DHT22;2976;49.764;9.796;2023-05-19T04:06:36;7.30;1.00
5901;DHT22;2976;49.764;9.796;2023-05-19T04:09:02;7.40;1.00
5901;DHT22;2976;49.764;9.796;2023-05-19T04:11:35;7.50;1.00
5901;DHT22;2976;49.764;9.796;2023-05-19T04:14:01;7.50;1.00
5901;DHT22;2976;49.764;9.796;2023-05-19T04:16:26;7.60;1.00
5901;DHT22;2976;49.764;9.796;2023-05-19T04:18:52;7.70;1.00
5901;DHT22;2976;49.764;9.796;2023-05-19T04:21:18;7.70;1.00
5901;DHT22;2976;49.764;9.796;2023-05-19T04:23:45;7.80;99.90
5901;DHT22;2976;49.764;9.796;2023-05-19T04:26:11;7.90;99.90
5901;DHT22;2976;49.764;9.796;2023-05-19T04:28:39;8.00;99.90
5901;DHT22;2976;49.764;9.796;2023-05-19T04:31:07;8.10;99.90
5901;DHT22;2976;49.764;9.796;2023-05-19T04:33:37;8.10;99.90
5901;DHT22;2976;49.764;9.796;2023-05-19T04:36:04;8.20;1.00
5901;DHT22;2976;49.764;9.796;2023-05-19T04:38:33;8.40;98.80
5901;DHT22;2976;49.764;9.796;2023-05-19T04:40:58;8.50;99.90
5901;DHT22;2976;49.764;9.796;2023-05-19T04:43:26;8.60;1.00
5901;DHT22;2976;49.764;9.796;2023-05-19T04:45:51;8.70;1.00
5901;DHT22;2976;49.764;9.796;2023-05-19T04:48:18;8.70;1.00
5901;DHT22;2976;49.764;9.796;2023-05-19T04:50:46;8.80;99.90
5901;DHT22;2976;49.764;9.796;2023-05-19T04:53:13;8.90;99.90
5901;DHT22;2976;49.764;9.796;2023-05-19T04:55:39;9.00;1.00
5901;DHT22;2976;49.764;9.796;2023-05-19T04:58:05;9.10;99.90
5901;DHT22;2976;49.764;9.796;2023-05-19T05:00:31;9.10;1.00
5901;DHT22;2976;49.764;9.796;2023-05-19T05:02:57;9.20;1.00
5901;DHT22;2976;49.764;9.796;2023-05-19T05:05:22;9.30;1.00
5901;DHT22;2976;49.764;9.796;2023-05-19T05:07:49;9.30;1.00
5901;DHT22;2976;49.764;9.796;2023-05-19T05:10:15;9.50;99.90
5901;DHT22;2976;49.764;9.796;2023-05-19T05:12:40;9.50;65.20
5901;DHT22;2976;49.764;9.796;2023-05-19T05:15:06;9.70;99.90
5901;DHT22;2976;49.764;9.796;2023-05-19T05:17:33;9.80;1.00
5901;DHT22;2976;49.764;9.796;2023-05-19T05:20:00;9.90;98.00
5901;DHT22;2976;49.764;9.796;2023-05-19T05:22:26;9.90;99.90
5901;DHT22;2976;49.764;9.796;2023-05-19T05:24:52;10.10;1.00
5901;DHT22;2976;49.764;9.796;2023-05-19T05:27:18;10.10;99.90
5901;DHT22;2976;49.764;9.796;2023-05-19T05:29:43;10.30;1.00
5901;DHT22;2976;49.764;9.796;2023-05-19T05:32:09;10.40;1.00
5901;DHT22;2976;49.764;9.796;2023-05-19T05:34:35;10.50;99.90
5901;DHT22;2976;49.764;9.796;2023-05-19T05:37:02;10.50;99.90
5901;DHT22;2976;49.764;9.796;2023-05-19T05:39:28;10.60;99.90
5901;DHT22;2976;49.764;9.796;2023-05-19T05:41:53;10.60;99.90
5901;DHT22;2976;49.764;9.796;2023-05-19T05:44:19;10.60;99.90
5901;DHT22;2976;49.764;9.796;2023-05-19T05:46:45;10.90;1.00
5901;DHT22;2976;49.764;9.796;2023-05-19T05:49:10;11.10;1.00
5901;DHT22;2976;49.764;9.796;2023-05-19T05:51:38;11.40;1.00
5901;DHT22;2976;49.764;9.796;2023-05-19T05:54:05;11.70;1.00
5901;DHT22;2976;49.764;9.796;2023-05-19T05:56:32;11.80;1.00
5901;DHT22;2976;49.764;9.796;2023-05-19T05:59:01;11.70;1.00
5901;DHT22;2976;49.764;9.796;2023-05-19T06:01:27;11.80;1.00
5901;DHT22;2976;49.764;9.796;2023-05-19T06:03:55;12.00;1.00
5901;DHT22;2976;49.764;9.796;2023-05-19T06:06:20;12.30;99.90
5901;DHT22;2976;49.764;9.796;2023-05-19T06:08:46;12.60;1.00
5901;DHT22;2976;49.764;9.796;2023-05-19T06:11:11;12.80;99.90
5901;DHT22;2976;49.764;9.796;2023-05-19T06:13:37;12.80;99.90
5901;DHT22;2976;49.764;9.796;2023-05-19T06:16:04;12.80;99.90
5901;DHT22;2976;49.764;9.796;2023-05-19T06:18:30;12.60;99.90
5901;DHT22;2976;49.764;9.796;2023-05-19T06:20:55;12.80;99.90
5901;DHT22;2976;49.764;9.796;2023-05-19T06:23:21;12.90;99.90
5901;DHT22;2976;49.764;9.796;2023-05-19T06:25:47;12.90;99.90
5901;DHT22;2976;49.764;9.796;2023-05-19T06:28:12;13.60;99.90
5901;DHT22;2976;49.764;9.796;2023-05-19T06:30:38;14.50;99.90
5901;DHT22;2976;49.764;9.796;2023-05-19T06:33:03;15.30;99.90
5901;DHT22;2976;49.764;9.796;2023-05-19T06:35:29;15.70;94.40
5901;DHT22;2976;49.764;9.796;2023-05-19T06:37:55;16.10;63.00
5901;DHT22;2976;49.764;9.796;2023-05-19T06:40:22;15.70;74.30
5901;DHT22;2976;49.764;9.796;2023-05-19T06:42:47;15.70;70.30
5901;DHT22;2976;49.764;9.796;2023-05-19T06:45:13;15.50;76.10
5901;DHT22;2976;49.764;9.796;2023-05-19T06:47:39;15.50;73.40
5901;DHT22;2976;49.764;9.796;2023-05-19T06:50:09;15.50;86.60
5901;DHT22;2976;49.764;9.796;2023-05-19T06:52:34;15.80;92.30
5901;DHT22;2976;49.764;9.796;2023-05-19T06:55:00;16.00;80.20
5901;DHT22;2976;49.764;9.796;2023-05-19T06:57:26;16.30;84.70
5901;DHT22;2976;49.764;9.796;2023-05-19T06:59:51;16.70;64.60
5901;DHT22;2976;49.764;9.796;2023-05-19T07:02:17;16.60;53.60
5901;DHT22;2976;49.764;9.796;2023-05-19T07:04:43;16.70;64.20
5901;DHT22;2976;49.764;9.796;2023-05-19T07:07:08;16.40;53.40
5901;DHT22;2976;49.764;9.796;2023-05-19T07:09:34;16.50;53.50
5901;DHT22;2976;49.764;9.796;2023-05-19T07:11:59;16.50;71.30
5901;DHT22;2976;49.764;9.796;2023-05-19T07:14:26;16.80;56.30
5901;DHT22;2976;49.764;9.796;2023-05-19T07:16:51;16.70;54.50
5901;DHT22;2976;49.764;9.796;2023-05-19T07:19:17;17.10;71.80
5901;DHT22;2976;49.764;9.796;2023-05-19T07:21:45;16.70;53.60
5901;DHT22;2976;49.764;9.796;2023-05-19T07:24:11;16.50;54.00
5901;DHT22;2976;49.764;9.796;2023-05-19T07:26:37;16.20;56.20
5901;DHT22;2976;49.764;9.796;2023-05-19T07:29:02;16.50;53.60
5901;DHT22;2976;49.764;9.796;2023-05-19T07:31:28;16.60;56.60
5901;DHT22;2976;49.764;9.796;2023-05-19T07:33:54;16.50;57.90
5901;DHT22;2976;49.764;9.796;2023-05-19T07:36:19;16.60;56.00
5901;DHT22;2976;49.764;9.796;2023-05-19T07:38:45;16.60;54.60
5901;DHT22;2976;49.764;9.796;2023-05-19T07:41:11;16.40;53.80
5901;DHT22;2976;49.764;9.796;2023-05-19T07:43:37;16.30;53.90
5901;DHT22;2976;49.764;9.796;2023-05-19T07:46:03;16.20;56.10
5901;DHT22;2976;49.764;9.796;2023-05-19T07:48:28;15.90;57.80
5901;DHT22;2976;49.764;9.796;2023-05-19T07:50:54;15.80;88.50
5901;DHT22;2976;49.764;9.796;2023-05-19T07:53:20;16.10;87.20
5901;DHT22;2976;49.764;9.796;2023-05-19T07:55:47;16.50;79.10
5901;DHT22;2976;49.764;9.796;2023-05-19T07:58:13;16.30;57.20
5901;DHT22;2976;49.764;9.796;2023-05-19T08:00:38;16.70;78.70
5901;DHT22;2976;49.764;9.796;2023-05-19T08:03:07;16.50;59.50
5901;DHT22;2976;49.764;9.796;2023-05-19T08:05:34;17.00;67.20
5901;DHT22;2976;49.764;9.796;2023-05-19T08:07:59;16.90;61.50
5901;DHT22;2976;49.764;9.796;2023-05-19T08:10:25;16.70;55.90
5901;DHT22;2976;49.764;9.796;2023-05-19T08:12:50;16.50;58.90
5901;DHT22;2976;49.764;9.796;2023-05-19T08:15:16;16.60;70.20
5901;DHT22;2976;49.764;9.796;2023-05-19T08:17:43;17.00;72.70
5901;DHT22;2976;49.764;9.796;2023-05-19T08:20:09;17.20;66.00
5901;DHT22;2976;49.764;9.796;2023-05-19T08:22:36;17.50;60.90
5901;DHT22;2976;49.764;9.796;2023-05-19T08:25:02;17.50;54.80
5901;DHT22;2976;49.764;9.796;2023-05-19T08:27:29;17.50;54.50
5901;DHT22;2976;49.764;9.796;2023-05-19T08:29:55;17.40;54.00
5901;DHT22;2976;49.764;9.796;2023-05-19T08:32:21;17.70;54.40
5901;DHT22;2976;49.764;9.796;2023-05-19T08:34:47;17.50;54.30
5901;DHT22;2976;49.764;9.796;2023-05-19T08:37:13;16.70;54.40
5901;DHT22;2976;49.764;9.796;2023-05-19T08:39:38;16.70;56.30
5901;DHT22;2976;49.764;9.796;2023-05-19T08:42:04;16.50;61.90
5901;DHT22;2976;49.764;9.796;2023-05-19T08:44:31;16.70;75.20
5901;DHT22;2976;49.764;9.796;2023-05-19T08:47:00;17.30;70.60
5901;DHT22;2976;49.764;9.796;2023-05-19T08:49:32;17.90;58.40
5901;DHT22;2976;49.764;9.796;2023-05-19T08:54:51;17.40;54.40
5901;DHT22;2976;49.764;9.796;2023-05-19T08:57:17;17.70;65.40
5901;DHT22;2976;49.764;9.796;2023-05-19T08:59:43;18.30;60.60
5901;DHT22;2976;49.764;9.796;2023-05-19T09:02:10;18.30;55.00
5901;DHT22;2976;49.764;9.796;2023-05-19T09:04:38;18.40;55.70
5901;DHT22;2976;49.764;9.796;2023-05-19T09:07:04;18.00;54.70
5901;DHT22;2976;49.764;9.796;2023-05-19T09:09:30;17.80;54.70
5901;DHT22;2976;49.764;9.796;2023-05-19T09:11:57;17.60;55.20
5901;DHT22;2976;49.764;9.796;2023-05-19T09:14:22;17.70;54.70
5901;DHT22;2976;49.764;9.796;2023-05-19T09:16:48;17.80;55.90
5901;DHT22;2976;49.764;9.796;2023-05-19T09:19:17;17.70;54.80
5901;DHT22;2976;49.764;9.796;2023-05-19T09:21:42;17.60;54.90
5901;DHT22;2976;49.764;9.796;2023-05-19T09:24:10;17.80;58.80
5901;DHT22;2976;49.764;9.796;2023-05-19T09:26:37;18.20;61.50
5901;DHT22;2976;49.764;9.796;2023-05-19T09:29:13;18.60;59.50
5901;DHT22;2976;49.764;9.796;2023-05-19T09:31:39;18.90;55.80
5901;DHT22;2976;49.764;9.796;2023-05-19T09:34:11;18.80;56.10
5901;DHT22;2976;49.764;9.796;2023-05-19T09:36:39;18.50;55.00
5901;DHT22;2976;49.764;9.796;2023-05-19T09:39:12;18.00;54.90
5901;DHT22;2976;49.764;9.796;2023-05-19T09:41:38;17.70;54.40
5901;DHT22;2976;49.764;9.796;2023-05-19T09:44:04;17.90;55.10
5901;DHT22;2976;49.764;9.796;2023-05-19T09:46:31;17.90;54.80
5901;DHT22;2976;49.764;9.796;2023-05-19T09:49:07;17.50;54.60
5901;DHT22;2976;49.764;9.796;2023-05-19T09:51:34;17.30;54.10
5901;DHT22;2976;49.764;9.796;2023-05-19T09:54:01;17.00;53.80
5901;DHT22;2976;49.764;9.796;2023-05-19T09:56:33;16.90;61.40
5901;DHT22;2976;49.764;9.796;2023-05-19T09:58:58;17.00;56.70
5901;DHT22;2976;49.764;9.796;2023-05-19T10:01:24;16.80;58.20
5901;DHT22;2976;49.764;9.796;2023-05-19T10:03:51;16.60;56.00
5901;DHT22;2976;49.764;9.796;2023-05-19T10:06:18;16.50;65.00
5901;DHT22;2976;49.764;9.796;2023-05-19T10:08:45;16.40;68.90
5901;DHT22;2976;49.764;9.796;2023-05-19T10:11:12;16.60;73.10
5901;DHT22;2976;49.764;9.796;2023-05-19T10:13:38;16.80;69.00
5901;DHT22;2976;49.764;9.796;2023-05-19T10:16:05;16.80;71.70
5901;DHT22;2976;49.764;9.796;2023-05-19T10:18:32;16.90;65.50
5901;DHT22;2976;49.764;9.796;2023-05-19T10:20:59;17.20;74.90
5901;DHT22;2976;49.764;9.796;2023-05-19T10:23:25;17.20;68.20
5901;DHT22;2976;49.764;9.796;2023-05-19T10:25:54;17.20;76.90
5901;DHT22;2976;49.764;9.796;2023-05-19T10:28:21;17.40;79.80
5901;DHT22;2976;49.764;9.796;2023-05-19T10:30:53;17.40;71.30
5901;DHT22;2976;49.764;9.796;2023-05-19T10:33:27;17.50;73.90
5901;DHT22;2976;49.764;9.796;2023-05-19T10:36:14;17.10;63.60
5901;DHT22;2976;49.764;9.796;2023-05-19T10:38:59;16.90;77.40
5901;DHT22;2976;49.764;9.796;2023-05-19T10:41:45;17.60;84.60
5901;DHT22;2976;49.764;9.796;2023-05-19T10:47:01;17.90;67.30
5901;DHT22;2976;49.764;9.796;2023-05-19T10:49:35;17.70;73.00
5901;DHT22;2976;49.764;9.796;2023-05-19T10:52:01;17.60;71.00
5901;DHT22;2976;49.764;9.796;2023-05-19T10:54:43;17.50;80.60
5901;DHT22;2976;49.764;9.796;2023-05-19T10:57:15;17.70;77.40
5901;DHT22;2976;49.764;9.796;2023-05-19T10:59:43;17.50;75.10
5901;DHT22;2976;49.764;9.796;2023-05-19T11:02:09;17.40;74.30
5901;DHT22;2976;49.764;9.796;2023-05-19T11:04:47;17.20;85.60
5901;DHT22;2976;49.764;9.796;2023-05-19T11:07:17;17.30;83.50
5901;DHT22;2976;49.764;9.796;2023-05-19T11:09:48;17.20;86.20
5901;DHT22;2976;49.764;9.796;2023-05-19T11:12:21;17.70;88.00
5901;DHT22;2976;49.764;9.796;2023-05-19T11:14:47;17.90;86.80
5901;DHT22;2976;49.764;9.796;2023-05-19T11:17:14;17.80;78.20
5901;DHT22;2976;49.764;9.796;2023-05-19T11:19:53;18.20;79.20
5901;DHT22;2976;49.764;9.796;2023-05-19T11:22:26;18.10;82.20
5901;DHT22;2976;49.764;9.796;2023-05-19T11:24:55;17.90;72.30
5901;DHT22;2976;49.764;9.796;2023-05-19T11:27:34;17.70;73.40
5901;DHT22;2976;49.764;9.796;2023-05-19T11:32:33;17.50;83.50
5901;DHT22;2976;49.764;9.796;2023-05-19T11:34:59;17.50;80.20
5901;DHT22;2976;49.764;9.796;2023-05-19T11:37:25;17.50;88.70
5901;DHT22;2976;49.764;9.796;2023-05-19T11:39:51;17.90;86.90
5901;DHT22;2976;49.764;9.796;2023-05-19T11:42:18;18.10;80.80
5901;DHT22;2976;49.764;9.796;2023-05-19T11:44:44;17.90;76.90
5901;DHT22;2976;49.764;9.796;2023-05-19T11:47:13;17.80;82.20
5901;DHT22;2976;49.764;9.796;2023-05-19T11:49:58;18.00;89.40
5901;DHT22;2976;49.764;9.796;2023-05-19T11:52:24;17.80;80.50
5901;DHT22;2976;49.764;9.796;2023-05-19T11:54:51;17.90;91.70
5901;DHT22;2976;49.764;9.796;2023-05-19T11:57:17;18.00;80.30
5901;DHT22;2976;49.764;9.796;2023-05-19T11:59:43;18.00;83.00
5901;DHT22;2976;49.764;9.796;2023-05-19T12:02:17;17.90;81.50
5901;DHT22;2976;49.764;9.796;2023-05-19T12:04:43;18.20;83.90
5901;DHT22;2976;49.764;9.796;2023-05-19T12:07:12;18.20;75.80
5901;DHT22;2976;49.764;9.796;2023-05-19T12:09:42;18.20;79.00
5901;DHT22;2976;49.764;9.796;2023-05-19T12:12:07;18.40;80.90
5901;DHT22;2976;49.764;9.796;2023-05-19T12:14:34;18.60;74.70
5901;DHT22;2976;49.764;9.796;2023-05-19T12:17:09;18.40;74.30
5901;DHT22;2976;49.764;9.796;2023-05-19T12:19:36;18.60;67.50
5901;DHT22;2976;49.764;9.796;2023-05-19T12:22:01;18.30;64.10
5901;DHT22;2976;49.764;9.796;2023-05-19T12:24:27;18.20;64.70
5901;DHT22;2976;49.764;9.796;2023-05-19T12:27:10;18.40;73.00
5901;DHT22;2976;49.764;9.796;2023-05-19T12:29:38;18.50;71.80
5901;DHT22;2976;49.764;9.796;2023-05-19T12:32:08;18.60;65.00
5901;DHT22;2976;49.764;9.796;2023-05-19T12:34:37;18.70;68.30
5901;DHT22;2976;49.764;9.796;2023-05-19T12:37:06;18.90;66.00
5901;DHT22;2976;49.764;9.796;2023-05-19T12:39:32;18.80;56.00
5901;DHT22;2976;49.764;9.796;2023-05-19T12:42:16;19.10;57.40
5901;DHT22;2976;49.764;9.796;2023-05-19T12:44:47;19.30;55.80
5901;DHT22;2976;49.764;9.796;2023-05-19T12:47:15;19.60;56.10
5901;DHT22;2976;49.764;9.796;2023-05-19T12:52:26;19.60;49.40
5901;DHT22;2976;49.764;9.796;2023-05-19T12:55:03;20.00;54.30
5901;DHT22;2976;49.764;9.796;2023-05-19T12:57:30;20.40;56.80
5901;DHT22;2976;49.764;9.796;2023-05-19T13:02:34;19.60;47.10
5901;DHT22;2976;49.764;9.796;2023-05-19T13:05:01;19.30;44.00
5901;DHT22;2976;49.764;9.796;2023-05-19T13:07:28;19.20;45.80
5901;DHT22;2976;49.764;9.796;2023-05-19T13:09:54;19.30;46.70
5901;DHT22;2976;49.764;9.796;2023-05-19T13:12:20;19.10;45.30
5901;DHT22;2976;49.764;9.796;2023-05-19T13:14:46;19.30;53.50
5901;DHT22;2976;49.764;9.796;2023-05-19T13:17:11;19.20;48.20
5901;DHT22;2976;49.764;9.796;2023-05-19T13:19:37;19.20;48.50
5901;DHT22;2976;49.764;9.796;2023-05-19T13:22:03;19.40;53.90
5901;DHT22;2976;49.764;9.796;2023-05-19T13:24:28;19.50;51.80
5901;DHT22;2976;49.764;9.796;2023-05-19T13:26:54;19.80;52.90
5901;DHT22;2976;49.764;9.796;2023-05-19T13:29:19;19.70;49.80
5901;DHT22;2976;49.764;9.796;2023-05-19T13:31:45;19.40;48.60
5901;DHT22;2976;49.764;9.796;2023-05-19T13:34:10;19.30;49.60
5901;DHT22;2976;49.764;9.796;2023-05-19T13:36:36;19.60;51.60
5901;DHT22;2976;49.764;9.796;2023-05-19T13:39:02;19.50;67.00
5901;DHT22;2976;49.764;9.796;2023-05-19T13:41:27;19.40;50.60
5901;DHT22;2976;49.764;9.796;2023-05-19T13:43:57;19.20;49.90
5901;DHT22;2976;49.764;9.796;2023-05-19T13:46:23;19.30;69.90
5901;DHT22;2976;49.764;9.796;2023-05-19T13:48:49;19.10;49.90
5901;DHT22;2976;49.764;9.796;2023-05-19T13:51:14;19.50;54.30
5901;DHT22;2976;49.764;9.796;2023-05-19T13:53:40;19.60;53.60
5901;DHT22;2976;49.764;9.796;2023-05-19T13:56:06;19.80;53.90
5901;DHT22;2976;49.764;9.796;2023-05-19T13:58:32;19.40;50.40
5901;DHT22;2976;49.764;9.796;2023-05-19T14:00:57;19.30;49.30
5901;DHT22;2976;49.764;9.796;2023-05-19T14:03:25;19.10;51.60
5901;DHT22;2976;49.764;9.796;2023-05-19T14:05:51;19.30;51.70
5901;DHT22;2976;49.764;9.796;2023-05-19T14:08:17;19.10;51.40
5901;DHT22;2976;49.764;9.796;2023-05-19T14:10:45;19.20;55.60
5901;DHT22;2976;49.764;9.796;2023-05-19T14:13:11;18.80;51.50
5901;DHT22;2976;49.764;9.796;2023-05-19T14:15:37;18.70;53.70
5901;DHT22;2976;49.764;9.796;2023-05-19T14:18:03;18.90;55.00
5901;DHT22;2976;49.764;9.796;2023-05-19T14:20:29;19.20;55.60
5901;DHT22;2976;49.764;9.796;2023-05-19T14:22:55;19.10;55.60
5901;DHT22;2976;49.764;9.796;2023-05-19T14:25:20;19.10;55.50
5901;DHT22;2976;49.764;9.796;2023-05-19T14:27:46;19.30;55.90
5901;DHT22;2976;49.764;9.796;2023-05-19T14:30:12;19.20;55.70
5901;DHT22;2976;49.764;9.796;2023-05-19T14:32:37;19.50;55.90
5901;DHT22;2976;49.764;9.796;2023-05-19T14:35:03;19.60;56.10
5901;DHT22;2976;49.764;9.796;2023-05-19T14:37:29;19.70;56.70
5901;DHT22;2976;49.764;9.796;2023-05-19T14:39:56;19.70;56.30
5901;DHT22;2976;49.764;9.796;2023-05-19T14:42:22;19.70;56.00
5901;DHT22;2976;49.764;9.796;2023-05-19T14:44:48;19.70;56.70
5901;DHT22;2976;49.764;9.796;2023-05-19T14:47:13;19.70;56.30
5901;DHT22;2976;49.764;9.796;2023-05-19T14:49:39;19.70;56.10
5901;DHT22;2976;49.764;9.796;2023-05-19T14:52:05;19.70;56.10
5901;DHT22;2976;49.764;9.796;2023-05-19T14:54:30;19.70;56.00
5901;DHT22;2976;49.764;9.796;2023-05-19T14:56:56;19.60;56.80
5901;DHT22;2976;49.764;9.796;2023-05-19T14:59:21;19.50;55.90
5901;DHT22;2976;49.764;9.796;2023-05-19T15:01:47;19.40;56.00
5901;DHT22;2976;49.764;9.796;2023-05-19T15:04:12;19.30;55.90
5901;DHT22;2976;49.764;9.796;2023-05-19T15:06:38;19.40;56.60
5901;DHT22;2976;49.764;9.796;2023-05-19T15:09:03;19.50;56.10
5901;DHT22;2976;49.764;9.796;2023-05-19T15:11:29;19.70;74.60
5901;DHT22;2976;49.764;9.796;2023-05-19T15:13:55;19.70;56.70
5901;DHT22;2976;49.764;9.796;2023-05-19T15:16:20;19.70;56.10
5901;DHT22;2976;49.764;9.796;2023-05-19T15:18:46;19.80;56.30
5901;DHT22;2976;49.764;9.796;2023-05-19T15:21:11;19.60;55.80
5901;DHT22;2976;49.764;9.796;2023-05-19T15:23:37;19.30;74.70
5901;DHT22;2976;49.764;9.796;2023-05-19T15:26:03;19.20;55.80
5901;DHT22;2976;49.764;9.796;2023-05-19T15:28:28;19.20;55.80
5901;DHT22;2976;49.764;9.796;2023-05-19T15:30:54;19.30;55.80
5901;DHT22;2976;49.764;9.796;2023-05-19T15:33:19;19.10;55.60
5901;DHT22;2976;49.764;9.796;2023-05-19T15:35:45;19.00;55.40
5901;DHT22;2976;49.764;9.796;2023-05-19T15:38:11;19.00;55.80
5901;DHT22;2976;49.764;9.796;2023-05-19T15:40:40;18.80;55.30
5901;DHT22;2976;49.764;9.796;2023-05-19T15:43:05;18.60;55.20
5901;DHT22;2976;49.764;9.796;2023-05-19T15:45:31;18.50;55.10
5901;DHT22;2976;49.764;9.796;2023-05-19T15:47:56;18.50;55.20
5901;DHT22;2976;49.764;9.796;2023-05-19T15:50:22;18.50;55.10
5901;DHT22;2976;49.764;9.796;2023-05-19T15:52:50;18.60;55.20
5901;DHT22;2976;49.764;9.796;2023-05-19T15:55:16;18.80;55.30
5901;DHT22;2976;49.764;9.796;2023-05-19T15:57:41;18.80;55.40
5901;DHT22;2976;49.764;9.796;2023-05-19T16:00:07;19.00;56.50
5901;DHT22;2976;49.764;9.796;2023-05-19T16:02:33;19.20;55.70
5901;DHT22;2976;49.764;9.796;2023-05-19T16:04:58;19.20;55.70
5901;DHT22;2976;49.764;9.796;2023-05-19T16:07:24;19.00;56.50
5901;DHT22;2976;49.764;9.796;2023-05-19T16:09:50;19.00;55.60
5901;DHT22;2976;49.764;9.796;2023-05-19T16:12:15;19.10;55.40
5901;DHT22;2976;49.764;9.796;2023-05-19T16:14:41;19.20;55.60
5901;DHT22;2976;49.764;9.796;2023-05-19T16:17:06;19.30;55.80
5901;DHT22;2976;49.764;9.796;2023-05-19T16:19:36;19.40;55.70
5901;DHT22;2976;49.764;9.796;2023-05-19T16:22:02;19.40;55.90
5901;DHT22;2976;49.764;9.796;2023-05-19T16:24:27;19.50;56.10
5901;DHT22;2976;49.764;9.796;2023-05-19T16:26:53;19.40;55.80
5901;DHT22;2976;49.764;9.796;2023-05-19T16:29:18;19.10;55.70
5901;DHT22;2976;49.764;9.796;2023-05-19T16:31:44;19.10;55.60
5901;DHT22;2976;49.764;9.796;2023-05-19T16:34:10;19.10;55.60
5901;DHT22;2976;49.764;9.796;2023-05-19T16:36:35;19.00;55.40